Terminal Aerodrome Forecast
Issued by NWS

Home | Current Version | Previous Version | Text Only | Print | Product List | Glossary On
Versions: 1 2 3 4 5 6 7 8 9 10 11 12 13 14
582
FTUS46 KMTR 261722
TAFSJC
TAF
KSJC 261722Z 2618/2718 VRB03KT 6SM HZ FU FEW050 SCT100 SCT200
     FM262000 31009KT 6SM HZ FU FEW050 SCT100 SCT200
     FM270300 30007KT 6SM HZ FU FEW050 SCT100 SCT200
     FM271000 VRB03KT 6SM HZ FU FEW020 FEW050 SCT100=

USA.gov is the U.S. government's official web portal to all federal, state and local government web resources and services.